createdAt,value
2017-05-29T00:02:16.526Z,17.30
2017-05-29T00:04:44.936Z,17.30
2017-05-29T00:07:13.279Z,17.30
2017-05-29T00:09:41.693Z,17.30
2017-05-29T00:12:10.019Z,17.30
2017-05-29T00:14:38.407Z,17.30
2017-05-29T00:17:06.725Z,17.30
2017-05-29T00:19:35.069Z,17.20
2017-05-29T00:22:03.384Z,17.20
2017-05-29T00:24:31.744Z,17.10
2017-05-29T00:27:00.061Z,17.10
2017-05-29T00:29:28.406Z,17.00
2017-05-29T00:31:56.737Z,17.00
2017-05-29T00:34:26.033Z,17.00
2017-05-29T00:36:54.371Z,17.00
2017-05-29T00:39:22.689Z,17.00
2017-05-29T00:41:51.045Z,16.90
2017-05-29T00:44:19.356Z,16.90
2017-05-29T00:46:47.663Z,16.90
2017-05-29T00:49:16.121Z,16.80
2017-05-29T00:51:44.435Z,16.80
2017-05-29T00:54:13.807Z,16.80
2017-05-29T00:56:42.114Z,16.70
2017-05-29T00:59:10.578Z,16.70
2017-05-29T01:01:38.891Z,16.60
2017-05-29T01:04:07.289Z,16.60
2017-05-29T01:06:34.860Z,16.60
2017-05-29T01:09:03.200Z,16.70
2017-05-29T01:11:31.532Z,16.70
2017-05-29T01:13:59.843Z,16.80
2017-05-29T01:16:28.204Z,16.80
2017-05-29T01:18:56.549Z,16.80
2017-05-29T01:21:24.864Z,16.80
2017-05-29T01:23:53.305Z,16.80
2017-05-29T01:26:21.619Z,16.80
2017-05-29T01:28:50.989Z,16.90
2017-05-29T01:31:19.306Z,16.90
2017-05-29T01:33:47.648Z,16.90
2017-05-29T01:36:15.969Z,16.90
2017-05-29T01:38:44.371Z,17.00
2017-05-29T01:41:12.704Z,17.00
2017-05-29T01:43:41.021Z,17.10
2017-05-29T01:46:09.432Z,17.10
2017-05-29T01:48:37.743Z,17.10
2017-05-29T01:51:06.105Z,17.10
2017-05-29T01:53:34.416Z,17.10
2017-05-29T01:56:02.728Z,17.10
2017-05-29T01:58:31.070Z,17.10
2017-05-29T02:00:59.388Z,17.20
2017-05-29T02:03:27.745Z,17.20
2017-05-29T02:05:56.056Z,17.20
2017-05-29T02:08:24.401Z,17.30
2017-05-29T02:10:52.775Z,17.30
2017-05-29T02:13:21.094Z,17.30
2017-05-29T02:15:49.462Z,17.30
2017-05-29T02:18:17.787Z,17.20
2017-05-29T02:20:46.128Z,17.20
2017-05-29T02:23:14.448Z,17.20
2017-05-29T02:25:42.761Z,17.20
2017-05-29T02:28:11.096Z,17.30
2017-05-29T02:30:39.504Z,17.30
2017-05-29T02:33:07.841Z,17.30
2017-05-29T02:35:36.156Z,17.30
2017-05-29T02:38:04.562Z,17.30
2017-05-29T02:40:32.868Z,17.30
2017-05-29T02:43:01.191Z,17.30
2017-05-29T02:45:29.527Z,17.30
2017-05-29T02:47:57.839Z,17.30
2017-05-29T02:50:26.177Z,17.30
2017-05-29T02:52:54.492Z,17.40
2017-05-29T02:55:22.919Z,17.40
2017-05-29T02:57:51.229Z,17.40
2017-05-29T03:00:19.544Z,17.40
2017-05-29T03:02:47.888Z,17.40
2017-05-29T03:05:16.204Z,17.40
2017-05-29T03:07:44.546Z,17.40
2017-05-29T03:10:12.869Z,17.40
2017-05-29T03:12:41.231Z,17.50
2017-05-29T03:15:09.552Z,17.50
2017-05-29T03:17:37.973Z,17.50
2017-05-29T03:20:06.313Z,17.50
2017-05-29T03:22:34.628Z,17.50
2017-05-29T03:25:02.966Z,17.50
2017-05-29T03:27:31.275Z,17.50
2017-05-29T03:29:59.614Z,17.50
2017-05-29T03:32:27.932Z,17.50
2017-05-29T03:34:56.248Z,17.50
2017-05-29T03:37:23.825Z,17.50
2017-05-29T03:39:52.146Z,17.50
2017-05-29T03:42:20.481Z,17.60
2017-05-29T03:44:48.797Z,17.50
2017-05-29T03:47:17.201Z,17.50
2017-05-29T03:49:45.520Z,17.50
2017-05-29T03:52:13.834Z,17.50
2017-05-29T03:54:42.172Z,17.50
2017-05-29T03:57:10.488Z,17.50
2017-05-29T03:59:38.880Z,17.50
2017-05-29T04:02:07.199Z,17.50
2017-05-29T04:04:35.558Z,17.50
2017-05-29T04:07:03.908Z,17.40
2017-05-29T04:09:32.272Z,17.40
2017-05-29T04:12:00.613Z,17.30
2017-05-29T04:14:28.923Z,17.40
2017-05-29T04:16:57.261Z,17.40
2017-05-29T04:19:25.576Z,17.50
2017-05-29T04:21:54.009Z,17.60
2017-05-29T04:24:22.337Z,17.70
2017-05-29T04:26:50.651Z,17.80
2017-05-29T04:29:19.020Z,17.80
2017-05-29T04:31:47.335Z,17.90
2017-05-29T04:34:15.670Z,18.00
2017-05-29T04:36:43.987Z,18.20
2017-05-29T04:39:12.344Z,18.50
2017-05-29T04:41:40.659Z,19.00
2017-05-29T04:44:08.986Z,19.40
2017-05-29T04:46:37.324Z,19.90
2017-05-29T04:49:05.636Z,20.30
2017-05-29T04:51:33.977Z,20.40
2017-05-29T04:54:02.292Z,20.50
2017-05-29T04:56:30.687Z,20.90
2017-05-29T04:58:58.999Z,21.30
2017-05-29T05:01:27.363Z,21.60
2017-05-29T05:03:55.737Z,21.80
2017-05-29T05:06:24.084Z,21.90
2017-05-29T05:08:52.411Z,22.10
2017-05-29T05:11:20.741Z,22.30
2017-05-29T05:13:49.089Z,22.20
2017-05-29T05:16:17.411Z,22.10
2017-05-29T05:18:45.728Z,21.80
2017-05-29T05:21:14.086Z,21.40
2017-05-29T05:23:42.443Z,21.20
2017-05-29T05:26:10.846Z,21.20
2017-05-29T05:28:39.209Z,21.20
2017-05-29T05:31:07.547Z,21.20
2017-05-29T05:33:35.856Z,21.20
2017-05-29T05:36:04.169Z,21.10
2017-05-29T05:38:32.538Z,21.10
2017-05-29T05:41:00.864Z,21.00
2017-05-29T05:43:29.209Z,20.90
2017-05-29T05:45:57.529Z,20.80
2017-05-29T05:48:25.966Z,20.80
2017-05-29T05:50:54.290Z,20.80
2017-05-29T05:53:22.640Z,20.70
2017-05-29T05:55:50.976Z,20.80
2017-05-29T05:58:19.292Z,21.00
2017-05-29T06:00:47.660Z,21.10
2017-05-29T06:03:15.980Z,21.20
2017-05-29T06:05:44.317Z,21.40
2017-05-29T06:08:12.656Z,21.40
2017-05-29T06:10:40.981Z,21.60
2017-05-29T06:13:09.340Z,21.70
2017-05-29T06:15:37.664Z,21.90
2017-05-29T06:18:05.995Z,22.00
2017-05-29T06:20:34.501Z,22.20
2017-05-29T06:23:02.833Z,22.40
2017-05-29T06:25:31.178Z,22.70
2017-05-29T06:27:59.504Z,22.90
2017-05-29T06:30:27.867Z,23.10
2017-05-29T06:32:56.188Z,23.20
2017-05-29T06:35:24.523Z,23.30
2017-05-29T06:37:52.865Z,23.30
2017-05-29T06:40:21.180Z,23.40
2017-05-29T06:42:49.533Z,23.60
2017-05-29T06:45:17.854Z,23.80
2017-05-29T06:47:46.173Z,24.00
2017-05-29T06:50:14.509Z,24.20
2017-05-29T06:52:42.824Z,24.40
2017-05-29T06:55:11.164Z,24.60
2017-05-29T06:57:38.712Z,24.60
2017-05-29T07:00:07.036Z,25.00
2017-05-29T07:02:35.377Z,25.10
2017-05-29T07:05:03.689Z,25.30
2017-05-29T07:07:32.048Z,25.40
2017-05-29T07:10:00.368Z,25.60
2017-05-29T07:12:28.688Z,25.80
2017-05-29T07:14:57.039Z,26.00
2017-05-29T07:17:25.352Z,26.20
2017-05-29T07:19:53.733Z,26.50
2017-05-29T07:22:22.051Z,26.70
2017-05-29T07:24:50.362Z,26.90
2017-05-29T07:27:18.697Z,27.10
2017-05-29T07:29:46.248Z,27.10
2017-05-29T07:32:14.589Z,27.40
2017-05-29T07:34:44.856Z,27.50
2017-05-29T07:37:13.190Z,27.70
2017-05-29T07:39:41.532Z,27.80
2017-05-29T07:42:09.860Z,28.00
2017-05-29T07:44:38.201Z,28.10
2017-05-29T07:47:05.760Z,28.10
2017-05-29T07:49:34.088Z,28.10
2017-05-29T07:52:02.419Z,28.30
2017-05-29T07:54:30.791Z,28.30
2017-05-29T07:56:58.350Z,28.30
2017-05-29T07:59:26.679Z,28.70
2017-05-29T08:01:55.055Z,28.80
2017-05-29T08:04:23.389Z,29.10
2017-05-29T08:06:51.700Z,29.30
2017-05-29T08:09:20.035Z,29.30
2017-05-29T08:11:48.349Z,29.40
2017-05-29T08:14:16.665Z,29.50
2017-05-29T08:16:45.004Z,29.60
2017-05-29T08:19:13.308Z,29.60
2017-05-29T08:21:41.652Z,29.70
2017-05-29T08:24:10.027Z,29.70
2017-05-29T08:26:38.479Z,29.70
2017-05-29T08:29:06.794Z,29.80
2017-05-29T08:31:35.146Z,29.90
2017-05-29T08:34:03.483Z,29.90
2017-05-29T08:36:31.113Z,29.90
2017-05-29T08:38:59.423Z,30.00
2017-05-29T08:41:27.770Z,30.00
2017-05-29T08:43:56.109Z,30.10
2017-05-29T08:46:24.448Z,30.20
2017-05-29T08:48:52.760Z,30.30
2017-05-29T08:51:21.127Z,30.30
2017-05-29T08:53:49.442Z,30.30
2017-05-29T08:56:17.780Z,30.40
2017-05-29T08:58:46.083Z,30.30
2017-05-29T09:01:14.421Z,30.20
2017-05-29T09:03:42.740Z,30.30
2017-05-29T09:06:11.086Z,30.50
2017-05-29T09:08:39.403Z,30.70
2017-05-29T09:11:07.743Z,30.80
2017-05-29T09:13:36.053Z,30.80
2017-05-29T09:16:04.393Z,30.80
2017-05-29T09:18:32.783Z,30.70
2017-05-29T09:21:01.125Z,30.60
2017-05-29T09:23:29.443Z,30.50
2017-05-29T09:25:57.785Z,30.50
2017-05-29T09:28:26.145Z,30.60
2017-05-29T09:30:54.528Z,30.70
2017-05-29T09:33:22.916Z,30.90
2017-05-29T09:35:51.268Z,31.00
2017-05-29T09:38:19.586Z,31.10
2017-05-29T09:40:47.923Z,31.10
2017-05-29T09:43:16.242Z,31.10
2017-05-29T09:45:44.588Z,31.20
2017-05-29T09:48:12.906Z,31.40
2017-05-29T09:50:41.251Z,31.60
2017-05-29T09:53:09.575Z,31.70
2017-05-29T09:55:37.924Z,31.70
2017-05-29T09:58:06.252Z,31.80
2017-05-29T10:00:34.604Z,31.80
2017-05-29T10:03:02.925Z,31.90
2017-05-29T10:05:31.285Z,32.10
2017-05-29T10:07:59.603Z,32.00
2017-05-29T10:10:27.965Z,31.90
2017-05-29T10:12:56.618Z,31.90
2017-05-29T10:15:24.932Z,32.00
2017-05-29T10:17:53.295Z,32.00
2017-05-29T10:20:20.882Z,31.90
2017-05-29T10:22:49.223Z,31.90
2017-05-29T10:25:17.540Z,32.00
2017-05-29T10:27:45.942Z,32.10
2017-05-29T10:30:18.635Z,32.20
2017-05-29T10:32:48.669Z,32.20
2017-05-29T10:35:17.003Z,32.20
2017-05-29T10:37:45.362Z,32.20
2017-05-29T10:40:15.411Z,32.20
2017-05-29T10:42:43.772Z,32.60
2017-05-29T10:45:12.334Z,32.80
2017-05-29T10:47:40.829Z,32.90
2017-05-29T10:50:09.317Z,32.80
2017-05-29T10:52:37.821Z,32.60
2017-05-29T10:55:06.497Z,32.50
2017-05-29T10:57:34.922Z,32.50
2017-05-29T11:00:07.455Z,32.60
2017-05-29T11:02:36.043Z,32.70
2017-05-29T11:05:04.355Z,32.90
2017-05-29T11:07:31.976Z,32.80
2017-05-29T11:10:00.296Z,33.20
2017-05-29T11:12:28.672Z,33.50
2017-05-29T11:14:56.987Z,33.60
2017-05-29T11:17:25.327Z,33.80
2017-05-29T11:19:53.652Z,33.90
2017-05-29T11:22:21.991Z,33.90
2017-05-29T11:24:50.313Z,33.90
2017-05-29T11:27:17.892Z,33.90
2017-05-29T11:29:46.209Z,34.00
2017-05-29T11:32:14.549Z,34.00
2017-05-29T11:34:42.869Z,34.00
2017-05-29T11:37:11.225Z,33.90
2017-05-29T11:39:39.543Z,33.70
2017-05-29T11:42:07.884Z,33.80
2017-05-29T11:44:36.202Z,34.00
2017-05-29T11:47:04.608Z,34.20
2017-05-29T11:49:32.920Z,34.40
2017-05-29T11:52:01.255Z,34.40
2017-05-29T11:54:29.578Z,34.20
2017-05-29T11:56:57.913Z,34.40
2017-05-29T11:59:26.242Z,34.30
2017-05-29T12:01:54.588Z,34.30
2017-05-29T12:04:23.113Z,34.30
2017-05-29T12:06:51.472Z,34.30
2017-05-29T12:09:19.108Z,34.30
2017-05-29T12:11:46.682Z,34.50
2017-05-29T12:14:14.996Z,34.80
2017-05-29T12:16:43.359Z,34.80
2017-05-29T12:19:11.668Z,34.80
2017-05-29T12:21:39.979Z,35.00
2017-05-29T12:24:08.348Z,35.30
2017-05-29T12:26:36.698Z,35.20
2017-05-29T12:29:05.039Z,35.20
2017-05-29T12:31:33.358Z,35.40
2017-05-29T12:34:01.698Z,35.70
2017-05-29T12:36:30.066Z,35.80
2017-05-29T12:38:58.400Z,35.80
2017-05-29T12:41:26.717Z,35.60
2017-05-29T12:43:55.065Z,35.60
2017-05-29T12:46:23.386Z,35.50
2017-05-29T12:48:51.724Z,35.40
2017-05-29T12:51:20.044Z,35.40
2017-05-29T12:53:49.397Z,35.50
2017-05-29T12:56:17.705Z,35.50
2017-05-29T12:58:46.049Z,35.60
2017-05-29T13:01:14.360Z,35.80
2017-05-29T13:03:42.697Z,35.60
2017-05-29T13:06:11.026Z,35.50
2017-05-29T13:08:39.365Z,35.30
2017-05-29T13:11:06.912Z,35.30
2017-05-29T13:13:35.255Z,35.20
2017-05-29T13:16:03.569Z,35.10
2017-05-29T13:18:31.911Z,35.20
2017-05-29T13:21:00.291Z,34.90
2017-05-29T13:23:28.629Z,34.90
2017-05-29T13:25:56.935Z,35.20
2017-05-29T13:28:25.275Z,35.40
2017-05-29T13:30:53.591Z,35.30
2017-05-29T13:33:21.923Z,35.10
2017-05-29T13:35:50.231Z,35.20
2017-05-29T13:38:18.574Z,35.30
2017-05-29T13:40:46.884Z,35.50
2017-05-29T13:43:15.244Z,35.60
2017-05-29T13:45:43.556Z,35.80
2017-05-29T13:48:11.914Z,35.90
2017-05-29T13:50:40.229Z,35.90
2017-05-29T13:53:08.571Z,35.50
2017-05-29T13:55:36.884Z,35.10
2017-05-29T13:58:05.221Z,34.80
2017-05-29T14:00:33.533Z,34.90
2017-05-29T14:03:01.866Z,35.30
2017-05-29T14:05:30.177Z,35.60
2017-05-29T14:07:58.526Z,35.80
2017-05-29T14:10:26.851Z,35.80
2017-05-29T14:12:55.183Z,35.70
2017-05-29T14:15:23.495Z,35.60
2017-05-29T14:17:51.832Z,35.50
2017-05-29T14:20:20.171Z,35.30
2017-05-29T14:22:48.489Z,35.20
2017-05-29T14:25:16.827Z,35.20
2017-05-29T14:27:45.139Z,35.30
2017-05-29T14:30:13.523Z,35.40
2017-05-29T14:32:41.846Z,35.60
2017-05-29T14:35:10.223Z,35.70
2017-05-29T14:37:38.541Z,35.50
2017-05-29T14:40:11.075Z,35.20
2017-05-29T14:42:39.380Z,35.20
2017-05-29T14:45:07.713Z,35.40
2017-05-29T14:47:36.019Z,35.70
2017-05-29T14:50:04.393Z,35.80
2017-05-29T14:52:32.703Z,35.80
2017-05-29T14:55:01.044Z,35.60
2017-05-29T14:57:29.365Z,35.40
2017-05-29T14:59:57.710Z,35.40
2017-05-29T15:02:26.034Z,35.50
2017-05-29T15:04:54.376Z,35.40
2017-05-29T15:07:22.693Z,35.30
2017-05-29T15:09:51.045Z,35.20
2017-05-29T15:12:19.368Z,35.10
2017-05-29T15:14:47.719Z,34.90
2017-05-29T15:17:16.028Z,35.10
2017-05-29T15:19:44.372Z,35.20
2017-05-29T15:22:12.683Z,35.30
2017-05-29T15:24:41.024Z,35.40
2017-05-29T15:27:09.340Z,35.50
2017-05-29T15:29:37.689Z,35.50
2017-05-29T15:32:06.015Z,35.60
2017-05-29T15:34:34.355Z,35.50
2017-05-29T15:37:02.673Z,35.50
2017-05-29T15:39:31.012Z,35.50
2017-05-29T15:41:59.320Z,35.50
2017-05-29T15:44:27.664Z,35.50
2017-05-29T15:46:55.996Z,35.50
2017-05-29T15:49:24.343Z,35.60
2017-05-29T15:51:52.664Z,35.60
2017-05-29T15:54:21.003Z,35.60
2017-05-29T15:56:49.325Z,35.50
2017-05-29T15:59:17.670Z,35.40
2017-05-29T16:01:46.005Z,35.20
2017-05-29T16:04:14.370Z,35.10
2017-05-29T16:06:42.692Z,35.00
2017-05-29T16:09:11.062Z,34.80
2017-05-29T16:11:39.377Z,34.90
2017-05-29T16:14:07.720Z,34.80
2017-05-29T16:16:36.037Z,34.70
2017-05-29T16:19:04.386Z,34.60
2017-05-29T16:21:32.728Z,34.40
2017-05-29T16:24:01.057Z,34.40
2017-05-29T16:26:29.399Z,34.30
2017-05-29T16:28:57.716Z,34.20
2017-05-29T16:31:26.060Z,34.00
2017-05-29T16:33:54.377Z,33.80
2017-05-29T16:36:21.961Z,33.80
2017-05-29T16:38:50.276Z,33.60
2017-05-29T16:41:18.629Z,33.60
2017-05-29T16:43:46.963Z,33.50
2017-05-29T16:46:15.314Z,33.40
2017-05-29T16:48:43.733Z,33.20
2017-05-29T16:51:12.072Z,32.70
2017-05-29T16:53:40.392Z,32.20
2017-05-29T16:56:08.766Z,31.70
2017-05-29T16:58:37.103Z,31.40
2017-05-29T17:01:05.449Z,31.10
2017-05-29T17:03:33.782Z,30.90
2017-05-29T17:06:02.125Z,30.70
2017-05-29T17:08:30.450Z,31.40
2017-05-29T17:10:58.807Z,32.90
2017-05-29T17:13:27.121Z,34.20
2017-05-29T17:15:55.514Z,35.00
2017-05-29T17:18:23.854Z,35.90
2017-05-29T17:20:52.205Z,37.00
2017-05-29T17:23:20.532Z,38.00
2017-05-29T17:25:48.878Z,38.80
2017-05-29T17:28:17.188Z,39.30
2017-05-29T17:30:45.530Z,39.40
2017-05-29T17:33:13.849Z,38.40
2017-05-29T17:35:42.231Z,36.70
2017-05-29T17:38:11.560Z,35.20
2017-05-29T17:40:39.905Z,34.10
2017-05-29T17:43:08.221Z,33.10
2017-05-29T17:45:36.922Z,32.40
2017-05-29T17:48:05.232Z,31.90
2017-05-29T17:50:33.572Z,31.50
2017-05-29T17:53:01.880Z,31.10
2017-05-29T17:55:30.223Z,30.90
2017-05-29T17:57:58.539Z,30.70
2017-05-29T18:00:26.880Z,30.50
2017-05-29T18:02:55.221Z,30.20
2017-05-29T18:05:23.561Z,30.00
2017-05-29T18:07:51.889Z,29.90
2017-05-29T18:10:20.231Z,29.80
2017-05-29T18:12:48.551Z,29.60
2017-05-29T18:15:16.896Z,29.50
2017-05-29T18:17:44.447Z,29.50
2017-05-29T18:20:12.765Z,29.40
2017-05-29T18:22:41.124Z,29.40
2017-05-29T18:25:09.432Z,29.40
2017-05-29T18:27:36.996Z,29.40
2017-05-29T18:30:05.307Z,29.40
2017-05-29T18:32:33.653Z,29.30
2017-05-29T18:35:01.977Z,29.20
2017-05-29T18:37:30.317Z,29.00
2017-05-29T18:39:58.635Z,29.00
2017-05-29T18:42:26.977Z,29.10
2017-05-29T18:44:55.316Z,29.00
2017-05-29T18:47:23.665Z,29.00
2017-05-29T18:49:51.974Z,28.90
2017-05-29T18:52:20.380Z,28.70
2017-05-29T18:54:48.701Z,28.50
2017-05-29T18:57:17.056Z,28.40
2017-05-29T18:59:44.600Z,28.40
2017-05-29T19:02:13.003Z,28.20
2017-05-29T19:04:41.317Z,28.10
2017-05-29T19:07:09.674Z,28.00
2017-05-29T19:09:38.092Z,27.80
2017-05-29T19:12:06.471Z,27.70
2017-05-29T19:14:34.985Z,27.50
2017-05-29T19:17:03.328Z,27.30
2017-05-29T19:19:31.667Z,27.10
2017-05-29T19:22:00.182Z,26.90
2017-05-29T19:24:28.506Z,26.70
2017-05-29T19:26:56.859Z,26.50
2017-05-29T19:29:24.399Z,26.50
2017-05-29T19:31:52.740Z,26.20
2017-05-29T19:34:21.053Z,26.10
2017-05-29T19:36:49.395Z,25.90
2017-05-29T19:39:17.730Z,25.80
2017-05-29T19:41:46.091Z,25.70
2017-05-29T19:44:14.399Z,25.50
2017-05-29T19:46:42.739Z,25.40
2017-05-29T19:49:11.066Z,25.30
2017-05-29T19:51:39.463Z,25.20
2017-05-29T19:54:07.771Z,25.10
2017-05-29T19:56:36.106Z,24.90
2017-05-29T19:59:04.411Z,24.80
2017-05-29T20:01:32.851Z,24.60
2017-05-29T20:04:01.171Z,24.40
2017-05-29T20:06:29.516Z,24.20
2017-05-29T20:08:57.836Z,24.20
2017-05-29T20:11:26.185Z,24.10
2017-05-29T20:13:54.504Z,23.90
2017-05-29T20:16:22.862Z,23.80
2017-05-29T20:18:51.320Z,23.60
2017-05-29T20:21:19.644Z,23.50
2017-05-29T20:23:47.999Z,23.50
2017-05-29T20:26:16.307Z,23.50
2017-05-29T20:28:44.652Z,23.40
2017-05-29T20:31:12.961Z,23.30
2017-05-29T20:33:41.412Z,23.30
2017-05-29T20:36:09.761Z,23.30
2017-05-29T20:38:38.115Z,23.20
2017-05-29T20:41:06.429Z,23.20
2017-05-29T20:43:34.793Z,23.20
2017-05-29T20:46:03.108Z,23.10
2017-05-29T20:48:31.514Z,23.00
2017-05-29T20:50:59.860Z,22.90
2017-05-29T20:53:28.214Z,22.70
2017-05-29T20:55:56.608Z,22.70
2017-05-29T20:58:24.957Z,22.50
2017-05-29T21:00:53.270Z,22.50
2017-05-29T21:03:21.613Z,22.50
2017-05-29T21:05:49.942Z,22.50
2017-05-29T21:08:18.329Z,22.40
2017-05-29T21:10:46.658Z,22.40
2017-05-29T21:13:15.000Z,22.40
2017-05-29T21:15:43.314Z,22.40
2017-05-29T21:18:11.664Z,22.30
2017-05-29T21:20:39.984Z,22.30
2017-05-29T21:23:08.397Z,22.30
2017-05-29T21:25:36.716Z,22.20
2017-05-29T21:28:05.154Z,22.20
2017-05-29T21:30:33.481Z,22.20
2017-05-29T21:33:01.929Z,22.20
2017-05-29T21:35:30.245Z,22.20
2017-05-29T21:37:58.564Z,22.20
2017-05-29T21:40:26.916Z,22.10
2017-05-29T21:42:55.227Z,22.10
2017-05-29T21:45:23.573Z,22.00
2017-05-29T21:47:51.943Z,22.00
2017-05-29T21:50:20.304Z,22.00
2017-05-29T21:52:48.624Z,22.00
2017-05-29T21:55:16.937Z,22.10
2017-05-29T21:57:45.289Z,22.10
2017-05-29T22:00:13.600Z,22.10
2017-05-29T22:02:41.974Z,22.10
2017-05-29T22:05:10.311Z,22.10
2017-05-29T22:07:37.918Z,22.10
2017-05-29T22:10:06.246Z,22.00
2017-05-29T22:12:34.571Z,22.00
2017-05-29T22:15:02.915Z,22.00
2017-05-29T22:17:30.459Z,22.00
2017-05-29T22:19:58.819Z,22.00
2017-05-29T22:22:27.180Z,22.00
2017-05-29T22:24:55.505Z,22.00
2017-05-29T22:27:23.841Z,22.00
2017-05-29T22:29:52.147Z,22.00
2017-05-29T22:32:20.898Z,22.00
2017-05-29T22:34:49.213Z,22.00
2017-05-29T22:37:17.565Z,22.00
2017-05-29T22:39:45.897Z,22.00
2017-05-29T22:42:14.330Z,22.00
2017-05-29T22:44:42.676Z,22.00
2017-05-29T22:47:11.079Z,21.90
2017-05-29T22:49:39.431Z,21.90
2017-05-29T22:52:07.757Z,21.80
2017-05-29T22:54:36.165Z,21.80
2017-05-29T22:57:04.483Z,21.70
2017-05-29T22:59:32.881Z,21.60
2017-05-29T23:02:01.236Z,21.60
2017-05-29T23:04:29.560Z,21.50
2017-05-29T23:06:57.909Z,21.40
2017-05-29T23:09:26.243Z,21.30
2017-05-29T23:11:54.615Z,21.30
2017-05-29T23:14:23.851Z,21.20
2017-05-29T23:16:52.169Z,21.10
2017-05-29T23:19:20.536Z,21.00
2017-05-29T23:21:48.869Z,20.90
2017-05-29T23:24:18.216Z,20.80
2017-05-29T23:26:46.548Z,20.80
2017-05-29T23:29:14.902Z,20.70
2017-05-29T23:31:43.219Z,20.70
2017-05-29T23:34:12.452Z,20.60
2017-05-29T23:36:40.825Z,20.60
2017-05-29T23:39:09.181Z,20.50
2017-05-29T23:41:37.529Z,20.50
2017-05-29T23:44:05.849Z,20.50
2017-05-29T23:46:33.431Z,20.40
2017-05-29T23:49:01.775Z,20.50
2017-05-29T23:51:30.092Z,20.40
2017-05-29T23:53:58.457Z,20.40
2017-05-29T23:56:26.775Z,20.30
2017-05-29T23:58:55.125Z,20.30
